METAR Data
IDs: Format: Raw Decoded Include TAF

Data at: 1047 UTC 26 Sep 2018

KHVR 260953Z AUTO 23011KT 10SM CLR 06/02 A3007 RMK AO2 SLP188 T00560017
KHVR 260853Z AUTO 23011KT 10SM CLR 04/02 A3008 RMK AO2 SLP193 T00440017 56010
KHVR 260753Z AUTO 23008KT 10SM CLR 04/02 A3008 RMK AO2 SLP194 T00440022
KHVR 260653Z AUTO 23010KT 10SM CLR 06/02 A3009 RMK AO2 SLP198 T00560022 401720028
KHVR 260553Z AUTO 20006KT 10SM CLR 04/02 A3011 RMK AO2 SLP206 T00440017 10150 20044 57007
KHVR 260453Z AUTO 21005KT 10SM CLR 06/02 A3012 RMK AO2 SLP210 T00610022
KHVR 260353Z AUTO 10003KT 10SM CLR 07/03 A3013 RMK AO2 SLP212 T00720028
KHVR 260253Z AUTO 13004KT 10SM CLR 09/03 A3013 RMK AO2 SLP215 T00890028 57006
KHVR 260153Z AUTO 18006KT 10SM FEW085 09/03 A3014 RMK AO2 SLP220 T00890033
KHVR 260053Z AUTO 26003KT 10SM FEW080 12/03 A3015 RMK AO2 SLP219 T01220028
KHVR 252353Z AUTO 31008KT 10SM FEW085 15/00 A3015 RMK AO2 SLP219 T01500000 10172 20117 55008
KHVR 252253Z AUTO 23005KT 10SM BKN080 BKN095 16/01 A3015 RMK AO2 SLP216 T01560011
KHVR 252153Z AUTO 26009KT 10SM CLR 16/03 A3017 RMK AO2 SLP220 T01610028
KHVR 252053Z AUTO 27008KT 10SM FEW100 14/02 A3018 RMK AO2 SLP227 T01440022 58012
KHVR 251953Z AUTO 28004KT 10SM SCT080 15/02 A3019 RMK AO2 SLP231 T01500022
KHVR 251853Z AUTO 27008KT 10SM FEW043 BKN080 13/03 A3021 RMK AO2 SLP237 T01330028
KHVR 251753Z AUTO 25009KT 10SM CLR 12/04 A3022 RMK AO2 SLP242 T01170044 10122 20028 56004
KHVR 251732Z AUTO 26009KT 10SM SCT022 11/05 A3022 RMK AO2 T01110050
KHVR 251705Z AUTO 23012KT 10SM BKN019 11/05 A3022 RMK AO2 T01060050
KHVR 251653Z AUTO 24010G18KT 10SM SCT019 09/05 A3022 RMK AO2 SLP247 T00940050
KHVR 251553Z AUTO 23009KT 10SM FEW016 09/05 A3022 RMK AO2 SLP246 T00940050
KHVR 251453Z AUTO 26008KT 10SM CLR 07/04 A3023 RMK AO2 SLP252 T00670044 50009
KHVR 251353Z AUTO 24005KT 10SM CLR 04/03 A3023 RMK AO2 SLP254 T00390033
KHVR 251253Z AUTO 24006KT 10SM CLR 03/03 A3021 RMK AO2 SLP246 T00330028
KHVR 251153Z AUTO 27005KT 10SM CLR 03/03 A3020 RMK AO2 SLP238 70004 T00330028 10072 20033 53009
KHVR 251053Z AUTO 25006KT 10SM CLR 04/03 A3019 RMK AO2 SLP232 T00440033
KHVR 250953Z AUTO 27009KT 10SM SCT040 OVC050 06/04 A3018 RMK AO2 SLP230 T00610039
KHVR 250853Z AUTO 25007KT 10SM FEW044 06/04 A3017 RMK AO2 SLP228 T00560044 53010
KHVR 250753Z AUTO 24008KT 10SM FEW044 06/04 A3016 RMK AO2 SLP224 T00610044
KHVR 250653Z AUTO 25007KT 10SM FEW049 SCT055 07/05 A3015 RMK AO2 SLP221 T00670050 401280050
KHVR 250553Z AUTO 29010G17KT 10SM BKN075 OVC095 07/05 A3014 RMK AO2 SLP218 60003 T00720050 10122 20050 51015
KHVR 250453Z AUTO 29004KT 10SM SCT060 SCT070 05/04 A3012 RMK AO2 SLP215 T00500044
KHVR 250353Z AUTO 25004KT 10SM SCT075 06/04 A3011 RMK AO2 SLP210 T00560044
KHVR 250253Z AUTO 24008KT 10SM FEW055 SCT110 06/05 A3009 RMK AO2 SLP204 60003 T00610050 51019
KHVR 250153Z AUTO 23007KT 10SM FEW055 BKN080 OVC100 07/06 A3006 RMK AO2 WSHFT 0047 RAB12E28 SLP194 P0001 T00720056
KHVR 250107Z AUTO 29012KT 10SM SCT048 BKN085 OVC110 09/06 A3007 RMK AO2 WSHFT 0047 T00890056
KHVR 250053Z AUTO 29016G22KT 10SM BKN048 BKN055 BKN070 09/05 A3006 RMK AO2 PK WND 33034/0004 WSHFT 2358 RAB07E40 SLP193 P0002 T00890050
KHVR 250018Z AUTO 30014KT 7SM -RA BKN044 OVC055 08/07 A3006 RMK AO2 PK WND 33034/0004 WSHFT 2358 RAB07 P0001 T00830067
KHVR 242353Z AUTO 26011KT 10SM SCT046 OVC060 12/03 A3003 RMK AO2 SLP177 60001 T01220028 10128 20072 55002
KHVR 242253Z AUTO 28009KT 10SM BKN043 BKN050 OVC060 12/03 A3002 RMK AO2 SLP175 T01170028